Time;durP1;ratioP1;P1;durP2;ratioP2;P2;SDS_P1;SDS_P2;PMS_P1;PMS_P2;Temp;Humidity;BMP_temperature;BMP_pressure;BME280_temperature;BME280_humidity;BME280_pressure;Samples;Min_cycle;Max_cycle;Signal;HPM_P1;HPM_P2
2022/03/19 00:00:38;;;;;;;29.67;20.30;;;;;;;4.55;100.00;97307.25;5095971;28;20608;-52
2022/03/19 00:03:04;;;;;;;32.47;20.03;;;;;;;4.55;100.00;97307.25;5096034;28;20203;-49
2022/03/19 00:05:30;;;;;;;31.10;20.47;;;;;;;4.48;100.00;97305.00;5096155;28;20179;-56
2022/03/19 00:07:55;;;;;;;32.07;20.77;;;;;;;4.39;100.00;97308.81;5096390;28;20185;-52
2022/03/19 00:10:22;;;;;;;30.00;20.33;;;;;;;4.40;100.00;97303.09;5095906;28;20266;-50
2022/03/19 00:12:49;;;;;;;31.17;21.23;;;;;;;4.33;100.00;97304.69;5096093;28;20184;-52
2022/03/19 00:15:16;;;;;;;29.73;20.63;;;;;;;4.35;100.00;97308.66;5095593;28;20652;-51
2022/03/19 00:17:42;;;;;;;30.03;19.87;;;;;;;4.36;100.00;97309.44;5095785;28;20241;-52
2022/03/19 00:20:08;;;;;;;31.00;20.83;;;;;;;4.36;100.00;97304.03;5095630;28;20245;-65
2022/03/19 00:22:34;;;;;;;30.13;20.97;;;;;;;4.25;100.00;97308.13;5096527;28;20186;-59
2022/03/19 00:25:00;;;;;;;32.53;21.57;;;;;;;4.21;100.00;97307.19;5096446;28;20234;-59
2022/03/19 00:27:26;;;;;;;28.80;20.33;;;;;;;4.23;100.00;97302.28;5095911;28;20179;-58
2022/03/19 00:29:52;;;;;;;30.43;20.30;;;;;;;4.16;100.00;97304.63;5095758;28;20175;-59
2022/03/19 00:32:17;;;;;;;32.20;21.00;;;;;;;4.13;100.00;97299.84;5096078;28;20180;-58
2022/03/19 00:34:43;;;;;;;32.47;21.63;;;;;;;4.17;100.00;97306.22;5095797;28;20204;-60
2022/03/19 00:37:08;;;;;;;32.87;21.73;;;;;;;4.08;100.00;97308.91;5095553;28;20187;-58
2022/03/19 00:39:34;;;;;;;30.57;21.53;;;;;;;4.10;100.00;97300.47;5095874;28;20184;-58
2022/03/19 00:41:59;;;;;;;32.13;21.30;;;;;;;4.08;100.00;97297.31;5095383;28;20183;-66
2022/03/19 00:44:24;;;;;;;31.83;21.77;;;;;;;4.06;100.00;97300.31;5095770;28;20230;-66
2022/03/19 00:46:50;;;;;;;33.60;21.40;;;;;;;4.05;100.00;97297.94;5095777;28;20180;-66
2022/03/19 00:49:15;;;;;;;32.57;22.07;;;;;;;4.06;100.00;97294.13;5112690;28;20404;-66
2022/03/19 00:51:41;;;;;;;32.77;22.00;;;;;;;4.03;100.00;97294.72;5098177;28;20195;-66
2022/03/19 00:54:08;;;;;;;34.60;22.20;;;;;;;3.97;100.00;97290.59;5115857;28;20214;-66
2022/03/19 00:56:33;;;;;;;30.57;20.87;;;;;;;4.00;100.00;97296.16;5098940;28;20224;-65
2022/03/19 00:58:59;;;;;;;34.33;22.97;;;;;;;3.95;100.00;97298.22;5099249;28;20184;-65
2022/03/19 01:01:24;;;;;;;32.00;21.27;;;;;;;3.94;100.00;97288.53;5099383;28;20263;-52
2022/03/19 01:03:49;;;;;;;36.33;22.27;;;;;;;3.94;100.00;97283.94;5098707;28;20207;-51
2022/03/19 01:06:15;;;;;;;34.60;22.97;;;;;;;3.89;100.00;97285.97;5116975;28;20192;-51
2022/03/19 01:08:40;;;;;;;37.10;22.70;;;;;;;3.85;100.00;97287.72;5099144;28;20195;-49
2022/03/19 01:11:07;;;;;;;32.83;22.23;;;;;;;3.82;100.00;97283.72;5098820;28;20180;-49
2022/03/19 01:13:32;;;;;;;35.73;22.90;;;;;;;3.82;100.00;97278.31;5098664;28;20277;-53
2022/03/19 01:15:58;;;;;;;35.53;22.27;;;;;;;3.81;100.00;97275.91;5098631;28;20237;-66
2022/03/19 01:18:24;;;;;;;39.67;24.47;;;;;;;3.80;100.00;97264.34;5098754;28;20184;-66
2022/03/19 01:20:49;;;;;;;36.23;23.53;;;;;;;3.78;100.00;97271.94;5099103;28;20597;-66
2022/03/19 01:23:14;;;;;;;38.53;25.40;;;;;;;3.77;100.00;97266.84;5098764;28;20183;-65
2022/03/19 01:25:40;;;;;;;37.07;24.57;;;;;;;3.71;100.00;97260.00;5098754;28;20194;-66
2022/03/19 01:28:05;;;;;;;38.70;23.80;;;;;;;3.74;100.00;97264.75;5098385;28;20184;-66
2022/03/19 01:30:31;;;;;;;35.90;24.30;;;;;;;3.69;100.00;97254.13;5098373;28;20188;-66
2022/03/19 01:32:56;;;;;;;36.67;23.70;;;;;;;3.62;100.00;97248.38;5098599;28;20192;-59
2022/03/19 01:35:21;;;;;;;36.67;24.83;;;;;;;3.61;100.00;97244.09;5098409;28;20216;-45
2022/03/19 01:37:49;;;;;;;38.60;24.10;;;;;;;3.58;100.00;97238.19;5098422;28;20184;-66
2022/03/19 01:40:16;;;;;;;38.80;24.73;;;;;;;3.61;100.00;97249.50;5097996;28;20195;-66
2022/03/19 01:42:46;;;;;;;39.90;25.30;;;;;;;3.54;100.00;97237.22;5098224;28;20199;-65
2022/03/19 01:45:14;;;;;;;40.97;26.63;;;;;;;3.53;100.00;97232.94;5098245;28;20198;-66
2022/03/19 01:47:40;;;;;;;38.10;26.37;;;;;;;3.53;100.00;97232.94;5098114;28;20183;-66
2022/03/19 01:50:07;;;;;;;38.17;25.00;;;;;;;3.47;100.00;97228.00;5098057;28;20180;-65
2022/03/19 01:52:32;;;;;;;46.57;26.97;;;;;;;3.38;100.00;97227.97;5116020;28;20563;-45
2022/03/19 01:54:59;;;;;;;39.23;25.97;;;;;;;3.37;100.00;97220.97;5097876;28;20207;-51
2022/03/19 01:57:29;;;;;;;39.93;25.57;;;;;;;3.35;100.00;97225.06;5098076;28;20195;-52
2022/03/19 01:59:57;;;;;;;40.70;26.70;;;;;;;3.32;100.00;97215.72;5097936;28;20191;-48
2022/03/19 02:02:24;;;;;;;44.57;27.20;;;;;;;3.32;100.00;97220.31;5096694;28;20212;-53
2022/03/19 02:04:50;;;;;;;42.13;26.50;;;;;;;3.27;100.00;97223.16;5097746;28;20187;-53
2022/03/19 02:07:15;;;;;;;46.03;28.30;;;;;;;3.25;100.00;97220.75;5097875;28;20637;-51
2022/03/19 02:09:41;;;;;;;44.20;27.53;;;;;;;3.22;100.00;97221.41;5098028;28;20287;-45
2022/03/19 02:12:07;;;;;;;43.03;27.97;;;;;;;3.16;100.00;97211.84;5098057;28;20187;-50
2022/03/19 02:14:34;;;;;;;47.23;29.73;;;;;;;3.15;100.00;97220.25;5097643;28;20211;-47
2022/03/19 02:17:01;;;;;;;48.27;30.17;;;;;;;3.17;100.00;97213.41;5098221;28;20184;-50
2022/03/19 02:19:26;;;;;;;49.13;29.73;;;;;;;3.13;100.00;97207.06;5097769;28;20187;-47
2022/03/19 02:21:51;;;;;;;48.97;30.50;;;;;;;3.07;100.00;97213.69;5097980;28;20316;-49
2022/03/19 02:27:02;;;;;;;53.07;31.50;;;;;;;2.97;100.00;97203.19;5116200;28;20283;-47
2022/03/19 02:29:28;;;;;;;52.03;32.03;;;;;;;2.96;100.00;97212.34;5097577;28;20192;-48
2022/03/19 02:31:56;;;;;;;55.00;32.93;;;;;;;2.90;100.00;97213.63;5097410;28;20203;-67
2022/03/19 02:34:22;;;;;;;51.17;32.07;;;;;;;2.86;100.00;97207.25;5097856;28;20196;-66
2022/03/19 02:36:48;;;;;;;53.10;32.87;;;;;;;2.80;100.00;97207.66;5097479;28;20183;-68
2022/03/19 02:39:16;;;;;;;53.87;31.93;;;;;;;2.74;100.00;97207.00;5097393;28;20195;-66
2022/03/19 02:41:51;;;;;;;51.53;33.17;;;;;;;2.72;100.00;97214.63;5097264;28;20187;-67
2022/03/19 02:44:18;;;;;;;59.00;34.10;;;;;;;2.68;100.00;97215.53;5097577;28;20187;-64
2022/03/19 02:46:50;;;;;;;59.73;34.20;;;;;;;2.66;100.00;97215.06;5097766;28;20187;-48
2022/03/19 02:49:17;;;;;;;58.20;34.27;;;;;;;2.62;100.00;97212.16;5097279;28;20270;-48
2022/03/19 02:51:44;;;;;;;57.10;35.20;;;;;;;2.58;100.00;97211.19;5097282;28;20195;-65
2022/03/19 02:54:13;;;;;;;64.63;36.63;;;;;;;2.57;100.00;97198.81;5097062;28;20204;-68
2022/03/19 02:56:41;;;;;;;57.07;35.77;;;;;;;2.50;100.00;97198.44;5096927;28;20176;-68
2022/03/19 02:59:12;;;;;;;61.30;35.57;;;;;;;2.48;100.00;97195.25;5096790;28;20179;-70
2022/03/19 03:01:40;;;;;;;60.63;35.47;;;;;;;2.43;100.00;97198.09;5097530;28;20307;-70
2022/03/19 03:04:06;;;;;;;63.20;36.97;;;;;;;2.36;100.00;97189.63;5096628;28;20215;-70
2022/03/19 03:06:36;;;;;;;60.87;36.20;;;;;;;2.35;100.00;97190.75;5096839;28;20610;-48
2022/03/19 03:09:03;;;;;;;60.40;36.00;;;;;;;2.31;100.00;97181.69;5097042;28;20191;-66
2022/03/19 03:11:29;;;;;;;58.57;34.43;;;;;;;2.28;100.00;97176.09;5096885;28;20188;-69
2022/03/19 03:13:54;;;;;;;60.40;36.03;;;;;;;2.24;100.00;97178.59;5096002;28;20203;-66
2022/03/19 03:16:20;;;;;;;57.63;35.07;;;;;;;2.20;100.00;97188.41;5096811;28;20233;-67
2022/03/19 03:18:45;;;;;;;56.73;33.90;;;;;;;2.18;100.00;97182.50;5096651;28;20179;-65
2022/03/19 03:21:11;;;;;;;54.77;32.87;;;;;;;2.13;100.00;97177.25;5096880;28;20188;-63
2022/03/19 03:23:36;;;;;;;62.87;35.13;;;;;;;2.13;100.00;97182.66;5096473;28;20191;-51
2022/03/19 03:26:02;;;;;;;60.00;34.47;;;;;;;2.10;100.00;97187.84;5096216;28;20188;-56
2022/03/19 03:28:27;;;;;;;58.63;35.33;;;;;;;2.06;100.00;97182.28;5114593;28;20571;-49
2022/03/19 03:30:53;;;;;;;59.60;35.73;;;;;;;1.99;100.00;97181.88;5096327;28;20184;-46
2022/03/19 03:33:19;;;;;;;58.90;34.83;;;;;;;1.95;100.00;97172.81;5096893;28;20611;-44
2022/03/19 03:35:45;;;;;;;61.80;36.37;;;;;;;1.91;100.00;97174.53;5096440;28;20218;-47
2022/03/19 03:38:10;;;;;;;62.80;36.67;;;;;;;1.87;100.00;97165.47;5113336;28;20262;-45
2022/03/19 03:40:36;;;;;;;65.47;37.07;;;;;;;1.84;100.00;97165.28;5096291;28;20184;-45
2022/03/19 03:43:01;;;;;;;63.67;37.53;;;;;;;1.82;100.00;97168.25;5096226;28;20188;-51
2022/03/19 03:45:30;;;;;;;69.23;36.97;;;;;;;1.82;100.00;97165.56;5096901;28;20587;-51
2022/03/19 03:47:56;;;;;;;68.10;38.67;;;;;;;1.79;100.00;97166.16;5096433;28;20180;-51
2022/03/19 03:50:21;;;;;;;67.67;39.17;;;;;;;1.77;100.00;97168.38;5096337;28;20187;-51
2022/03/19 03:52:47;;;;;;;65.63;37.07;;;;;;;1.76;100.00;97174.88;5114272;28;20179;-51
2022/03/19 03:55:14;;;;;;;65.77;37.33;;;;;;;1.73;100.00;97175.47;5096126;28;20190;-50
2022/03/19 03:57:40;;;;;;;63.80;37.47;;;;;;;1.68;100.00;97170.19;5095973;28;20176;-49
2022/03/19 04:00:08;;;;;;;61.40;35.83;;;;;;;1.63;100.00;97173.00;5096188;28;20184;-49
2022/03/19 04:02:34;;;;;;;66.90;37.27;;;;;;;1.60;100.00;97172.81;5096189;28;20219;-48
2022/03/19 04:04:59;;;;;;;68.23;39.43;;;;;;;1.59;100.00;97172.00;5096005;28;20192;-51
2022/03/19 04:07:28;;;;;;;68.43;37.33;;;;;;;1.60;100.00;97162.84;5096080;28;20211;-51
2022/03/19 04:09:54;;;;;;;64.63;38.63;;;;;;;1.56;100.00;97164.53;5096139;28;20566;-49
2022/03/19 04:12:19;;;;;;;65.83;37.17;;;;;;;1.54;100.00;97158.69;5095917;28;20194;-51
2022/03/19 04:14:45;;;;;;;65.20;37.83;;;;;;;1.50;100.00;97146.94;5095695;28;20214;-51
2022/03/19 04:17:10;;;;;;;63.43;37.37;;;;;;;1.47;100.00;97155.59;5096511;28;20266;-49
2022/03/19 04:19:35;;;;;;;70.50;38.57;;;;;;;1.46;100.00;97159.38;5095825;28;20180;-49
2022/03/19 04:22:01;;;;;;;70.83;39.13;;;;;;;1.43;100.00;97154.59;5095844;28;20198;-48
2022/03/19 04:24:26;;;;;;;64.87;36.27;;;;;;;1.40;100.00;97157.09;5096175;28;20215;-47
2022/03/19 04:26:52;;;;;;;64.00;37.43;;;;;;;1.36;100.00;97151.53;5116905;28;20218;-50
2022/03/19 04:29:17;;;;;;;68.00;38.30;;;;;;;1.34;100.00;97148.31;5099951;28;20206;-44
2022/03/19 04:31:42;;;;;;;64.57;36.77;;;;;;;1.32;100.00;97150.53;5099184;28;20205;-46
2022/03/19 04:34:08;;;;;;;68.17;38.60;;;;;;;1.31;100.00;97148.91;5099319;28;20217;-45
2022/03/19 04:36:40;;;;;;;67.37;37.53;;;;;;;1.27;100.00;97153.31;5099277;28;20278;-46
2022/03/19 04:39:07;;;;;;;70.33;38.93;;;;;;;1.24;100.00;97145.84;5099626;28;20236;-50
2022/03/19 04:41:33;;;;;;;67.30;37.70;;;;;;;1.22;100.00;97149.94;5099481;28;20191;-51
2022/03/19 04:43:59;;;;;;;70.30;37.80;;;;;;;1.16;100.00;97151.94;5099490;28;20197;-51
2022/03/19 04:46:24;;;;;;;65.90;38.17;;;;;;;1.13;100.00;97144.44;5099042;28;20205;-50
2022/03/19 04:48:50;;;;;;;65.70;37.87;;;;;;;1.09;100.00;97140.78;5099408;28;20263;-52
2022/03/19 04:51:24;;;;;;;66.83;37.63;;;;;;;1.08;100.00;97149.13;5116165;28;20218;-50
2022/03/19 04:53:52;;;;;;;67.37;36.53;;;;;;;1.12;100.00;97150.94;5099608;28;20271;-47
2022/03/19 04:56:19;;;;;;;69.27;38.60;;;;;;;1.12;100.00;97150.13;5099000;28;20273;-53
2022/03/19 04:58:45;;;;;;;70.67;37.90;;;;;;;1.08;100.00;97146.44;5099422;28;20229;-66
2022/03/19 05:01:10;;;;;;;70.97;38.20;;;;;;;1.04;100.00;97143.56;5098811;28;20208;-68
2022/03/19 05:03:36;;;;;;;67.90;39.23;;;;;;;1.01;100.00;97138.78;5099092;28;20209;-67
2022/03/19 05:06:01;;;;;;;70.20;37.17;;;;;;;0.97;100.00;97143.16;5098997;28;20198;-67
2022/03/19 05:08:27;;;;;;;71.77;37.93;;;;;;;0.96;100.00;97146.97;5098920;28;20196;-66
2022/03/19 05:13:36;;;;;;;67.20;38.03;;;;;;;0.87;100.00;97137.22;5117204;28;20216;-47
2022/03/19 05:16:01;;;;;;;66.13;37.00;;;;;;;0.84;100.00;97133.19;5098831;28;20190;-46
2022/03/19 05:18:26;;;;;;;70.27;38.70;;;;;;;0.81;100.00;97133.81;5098454;28;20193;-48
2022/03/19 05:20:53;;;;;;;70.47;39.13;;;;;;;0.79;100.00;97125.25;5098161;28;20184;-49
2022/03/19 05:23:18;;;;;;;67.30;38.13;;;;;;;0.79;100.00;97127.13;5098457;28;20186;-50
2022/03/19 05:25:44;;;;;;;62.80;36.00;;;;;;;0.77;100.00;97126.63;5098678;28;20195;-51
2022/03/19 05:28:09;;;;;;;72.37;38.47;;;;;;;0.78;100.00;97120.16;5098401;28;20188;-51
2022/03/19 05:30:37;;;;;;;68.10;38.83;;;;;;;0.81;100.00;97128.44;5098526;28;20185;-52
2022/03/19 05:33:02;;;;;;;70.67;39.40;;;;;;;0.90;100.00;97123.13;5098285;28;20185;-65
2022/03/19 05:35:28;;;;;;;68.43;38.43;;;;;;;1.04;100.00;97119.38;5115352;28;20190;-49
2022/03/19 05:37:53;;;;;;;72.60;39.10;;;;;;;1.21;100.00;97110.69;5115057;28;20188;-47
2022/03/19 05:40:19;;;;;;;71.10;37.83;;;;;;;1.43;100.00;97114.25;5098059;28;20189;-46
2022/03/19 05:42:44;;;;;;;68.77;37.87;;;;;;;1.64;100.00;97107.28;5098237;28;20194;-49
2022/03/19 05:45:10;;;;;;;65.23;36.33;;;;;;;1.90;100.00;97113.69;5098216;28;20242;-45
2022/03/19 05:47:39;;;;;;;66.63;36.80;;;;;;;2.21;100.00;97114.56;5098138;28;20186;-47
2022/03/19 05:50:05;;;;;;;67.53;37.40;;;;;;;2.42;100.00;97115.63;5097931;28;20282;-45
2022/03/19 05:52:31;;;;;;;64.13;37.37;;;;;;;2.67;100.00;97117.69;5097848;28;20214;-68
2022/03/19 05:54:56;;;;;;;60.10;36.27;;;;;;;2.87;100.00;97124.41;5098467;28;20203;-52
2022/03/19 05:57:21;;;;;;;62.87;37.00;;;;;;;3.04;100.00;97122.59;5098019;28;20187;-46
2022/03/19 05:59:46;;;;;;;60.67;34.97;;;;;;;3.26;100.00;97130.59;5098087;28;20195;-49
2022/03/19 06:02:12;;;;;;;59.33;35.93;;;;;;;3.56;100.00;97128.13;5098125;28;20207;-50
2022/03/19 06:04:38;;;;;;;58.00;35.17;;;;;;;3.94;100.00;97124.50;5097920;28;20192;-47
2022/03/19 06:07:03;;;;;;;60.00;34.37;;;;;;;4.05;100.00;97120.38;5097770;28;20187;-48
2022/03/19 06:09:29;;;;;;;58.13;34.60;;;;;;;4.52;100.00;97123.97;5097920;28;20211;-57
2022/03/19 06:11:54;;;;;;;58.23;34.87;;;;;;;4.91;100.00;97129.06;5097810;28;20198;-48
2022/03/19 06:14:20;;;;;;;55.03;34.20;;;;;;;5.22;100.00;97118.78;5097724;28;20223;-49
2022/03/19 06:16:45;;;;;;;55.80;34.10;;;;;;;5.61;100.00;97119.16;5097870;28;20191;-49
2022/03/19 06:19:11;;;;;;;55.23;34.23;;;;;;;6.11;100.00;97119.16;5097611;28;20281;-56
2022/03/19 06:21:39;;;;;;;50.93;33.80;;;;;;;6.44;100.00;97125.41;5097638;28;20184;-54
2022/03/19 06:24:07;;;;;;;52.70;33.63;;;;;;;6.31;100.00;97123.78;5097346;28;20198;-54
2022/03/19 06:26:33;;;;;;;50.83;33.40;;;;;;;6.67;100.00;97121.19;5097689;28;20188;-53
2022/03/19 06:28:58;;;;;;;52.83;34.10;;;;;;;7.22;100.00;97113.34;5098273;28;20242;-48
2022/03/19 06:31:24;;;;;;;50.53;33.10;;;;;;;7.20;100.00;97115.59;5097566;28;20597;-45
2022/03/19 06:33:50;;;;;;;48.27;33.33;;;;;;;7.44;100.00;97109.38;5097438;28;20212;-45
2022/03/19 06:38:59;;;;;;;51.57;34.33;;;;;;;7.50;100.00;97119.69;5115636;28;20198;-45
2022/03/19 06:41:25;;;;;;;47.27;33.17;;;;;;;8.23;100.00;97112.22;5097334;28;20190;-47
2022/03/19 06:43:51;;;;;;;46.97;32.33;;;;;;;8.09;100.00;97112.53;5097321;28;20212;-45
2022/03/19 06:46:16;;;;;;;47.20;33.07;;;;;;;8.05;100.00;97119.03;5097429;28;20645;-45
2022/03/19 06:48:42;;;;;;;45.63;32.23;;;;;;;8.38;100.00;97101.38;5096402;28;20187;-62
2022/03/19 06:51:07;;;;;;;44.77;32.57;;;;;;;8.55;99.50;97106.50;5097099;28;20186;-64
2022/03/19 06:53:33;;;;;;;44.73;31.10;;;;;;;8.75;94.79;97100.03;5097627;28;20209;-66
2022/03/19 06:55:59;;;;;;;46.20;30.27;;;;;;;8.37;95.33;97102.50;5097560;28;20521;-63
2022/03/19 06:58:24;;;;;;;43.63;31.03;;;;;;;8.67;96.29;97092.81;5115226;28;20187;-63
2022/03/19 07:00:50;;;;;;;43.43;31.20;;;;;;;9.52;89.86;97091.09;5096954;28;20195;-61
2022/03/19 07:03:15;;;;;;;40.97;30.03;;;;;;;10.00;84.82;97096.09;5096791;28;20199;-64
2022/03/19 07:05:40;;;;;;;43.30;31.27;;;;;;;9.19;85.73;97098.06;5096873;28;20182;-46
2022/03/19 07:08:08;;;;;;;45.87;32.00;;;;;;;9.79;85.68;97089.34;5097513;28;20271;-61
2022/03/19 07:10:36;;;;;;;40.53;28.73;;;;;;;9.99;78.49;97099.16;5113849;28;20180;-63
2022/03/19 07:13:02;;;;;;;37.30;28.40;;;;;;;9.02;81.50;97091.03;5096793;28;20281;-62
2022/03/19 07:15:29;;;;;;;38.13;29.53;;;;;;;9.08;83.09;97078.75;5096602;28;20184;-60
2022/03/19 07:17:55;;;;;;;39.37;29.40;;;;;;;9.65;77.76;97084.38;5096707;28;20622;-64
2022/03/19 07:20:21;;;;;;;36.83;28.30;;;;;;;9.46;78.97;97075.34;5096352;28;20184;-63
2022/03/19 07:22:58;;;;;;;36.40;28.50;;;;;;;10.13;75.17;97078.44;5096729;28;20187;-51
2022/03/19 07:25:25;;;;;;;37.70;28.03;;;;;;;10.41;73.30;97074.72;5096382;28;20245;-64
2022/03/19 07:27:53;;;;;;;37.77;28.30;;;;;;;8.70;77.92;97083.97;5096706;28;20286;-62
2022/03/19 07:30:19;;;;;;;41.60;28.80;;;;;;;9.79;76.00;97073.78;5096895;28;20187;-63
2022/03/19 07:32:44;;;;;;;36.30;27.40;;;;;;;10.73;72.81;97081.56;5096804;28;20183;-64
2022/03/19 07:35:12;;;;;;;36.20;26.40;;;;;;;11.29;68.42;97075.13;5096630;28;20632;-63
2022/03/19 07:37:40;;;;;;;35.33;26.93;;;;;;;11.21;65.21;97083.59;5096568;28;20275;-65
2022/03/19 07:40:07;;;;;;;34.00;26.53;;;;;;;10.21;67.54;97084.03;5096208;28;20202;-70
2022/03/19 07:42:34;;;;;;;33.73;25.47;;;;;;;10.88;65.55;97069.72;5096278;28;20221;-50
2022/03/19 07:45:00;;;;;;;32.53;25.40;;;;;;;10.28;67.00;97067.81;5096657;28;20191;-53
2022/03/19 07:47:25;;;;;;;30.77;25.00;;;;;;;9.88;66.77;97079.03;5096024;28;20187;-47
2022/03/19 07:49:51;;;;;;;33.90;25.07;;;;;;;9.81;64.68;97068.75;5096059;28;20188;-48
2022/03/19 07:52:16;;;;;;;31.73;23.77;;;;;;;11.00;61.56;97066.84;5096346;28;20188;-48
2022/03/19 07:54:41;;;;;;;31.23;23.57;;;;;;;10.71;57.45;97075.69;5096331;28;20199;-51
2022/03/19 07:57:11;;;;;;;29.33;22.87;;;;;;;10.92;58.49;97082.31;5096288;28;20226;-52
2022/03/19 07:59:37;;;;;;;32.73;23.13;;;;;;;11.09;57.50;97059.97;5096409;28;20187;-58
2022/03/19 08:02:04;;;;;;;31.03;23.23;;;;;;;10.70;57.78;97063.19;5096672;28;20207;-55
2022/03/19 08:04:29;;;;;;;29.43;22.50;;;;;;;10.30;61.19;97055.38;5096502;28;20184;-55
2022/03/19 08:06:55;;;;;;;29.77;22.90;;;;;;;9.43;62.08;97070.59;5112958;28;20190;-51
2022/03/19 08:09:22;;;;;;;31.03;22.67;;;;;;;10.30;60.23;97060.06;5095840;28;20333;-57
2022/03/19 08:11:47;;;;;;;26.10;20.27;;;;;;;10.36;56.42;97075.00;5096132;28;20625;-54
2022/03/19 08:14:14;;;;;;;27.93;21.70;;;;;;;9.98;58.40;97049.25;5095723;28;20237;-55
2022/03/19 08:16:41;;;;;;;28.63;21.50;;;;;;;11.39;53.76;97046.38;5095679;28;20184;-58
2022/03/19 08:19:07;;;;;;;30.13;21.63;;;;;;;10.97;52.10;97048.44;5095805;28;20278;-67
2022/03/19 08:21:33;;;;;;;25.57;20.03;;;;;;;12.32;50.10;97039.88;5095936;28;20223;-61
2022/03/19 08:23:58;;;;;;;28.30;21.60;;;;;;;11.47;50.10;97026.97;5095925;28;20191;-61
2022/03/19 08:26:23;;;;;;;28.63;21.90;;;;;;;10.82;49.63;97043.88;5095963;28;20195;-61
2022/03/19 08:28:49;;;;;;;26.30;21.10;;;;;;;12.01;48.27;97026.56;5095686;28;20219;-62
2022/03/19 08:31:14;;;;;;;26.90;20.43;;;;;;;12.66;45.16;97030.47;5095843;28;20191;-63
2022/03/19 08:33:39;;;;;;;25.00;20.07;;;;;;;12.49;44.98;97023.63;5096097;28;20302;-62
2022/03/19 08:36:05;;;;;;;24.27;19.53;;;;;;;11.73;44.97;97032.47;5095882;28;20187;-45
2022/03/19 08:41:14;;;;;;;24.10;19.70;;;;;;;11.68;45.39;97031.97;5114203;28;20175;-52
2022/03/19 08:43:39;;;;;;;28.17;20.00;;;;;;;12.63;43.89;97012.03;5095505;28;20652;-53
2022/03/19 08:46:05;;;;;;;25.83;20.20;;;;;;;12.44;43.95;97009.47;5095685;28;20188;-46
2022/03/19 08:48:31;;;;;;;27.43;20.67;;;;;;;12.37;42.95;97012.13;5095518;28;20202;-47
2022/03/19 08:51:39;;;;;;;25.30;20.13;;;;;;;13.23;43.16;97007.91;5095895;28;20188;-47
2022/03/19 08:53:42;;;;;;;26.83;20.73;;;;;;;13.47;42.21;97009.25;5113209;28;20207;-45
2022/03/19 08:56:07;;;;;;;26.30;22.53;;;;;;;13.69;42.51;97009.00;5095288;28;20233;-45
2022/03/19 08:58:32;;;;;;;27.23;21.23;;;;;;;13.02;43.51;97008.53;5095360;28;20208;-65
2022/03/19 09:00:58;;;;;;;26.03;21.30;;;;;;;12.81;44.50;96996.53;5095284;28;20180;-65
2022/03/19 09:03:26;;;;;;;26.77;21.20;;;;;;;12.97;42.90;96994.34;5095408;28;20245;-62
2022/03/19 09:05:51;;;;;;;26.47;21.57;;;;;;;13.45;41.62;96986.88;5113210;28;20180;-64
2022/03/19 09:08:17;;;;;;;30.93;22.03;;;;;;;13.84;41.74;96998.88;5095412;28;20176;-63
2022/03/19 09:10:42;;;;;;;26.80;21.87;;;;;;;13.70;43.58;97002.34;5095313;28;20187;-62
2022/03/19 09:13:07;;;;;;;28.43;22.10;;;;;;;13.35;42.61;96982.91;5098579;28;20179;-45
2022/03/19 09:15:33;;;;;;;29.60;22.57;;;;;;;14.52;42.64;96980.34;5098908;28;20184;-45
2022/03/19 09:17:59;;;;;;;27.70;22.77;;;;;;;13.21;42.59;96977.31;5098835;28;20179;-46
2022/03/19 09:20:24;;;;;;;28.50;23.00;;;;;;;12.74;44.14;96969.06;5099206;28;20180;-45
2022/03/19 09:22:49;;;;;;;27.60;23.27;;;;;;;12.91;44.48;96962.94;5098568;28;20532;-47
2022/03/19 09:25:15;;;;;;;29.23;23.77;;;;;;;12.48;46.72;96971.94;5099020;28;20179;-45
2022/03/19 09:27:40;;;;;;;31.17;24.63;;;;;;;12.53;46.86;96960.66;5098240;28;20538;-47
2022/03/19 09:30:08;;;;;;;33.33;23.77;;;;;;;12.77;45.90;96962.81;5098696;28;20183;-44
2022/03/19 09:32:33;;;;;;;29.37;23.27;;;;;;;13.73;45.05;96954.88;5098765;28;20192;-65
2022/03/19 09:34:58;;;;;;;32.10;23.20;;;;;;;14.34;43.59;96962.22;5098269;28;20203;-44
2022/03/19 09:37:24;;;;;;;27.57;23.43;;;;;;;13.47;43.75;96941.41;5098793;28;20696;-44
2022/03/19 09:39:49;;;;;;;28.30;23.30;;;;;;;12.61;44.38;96951.34;5098332;28;20176;-43
2022/03/19 09:42:15;;;;;;;27.90;22.90;;;;;;;12.66;45.62;96959.19;5098985;28;20187;-44
2022/03/19 09:44:43;;;;;;;29.13;23.70;;;;;;;12.14;46.81;96945.75;5098820;28;20585;-48
2022/03/19 09:47:09;;;;;;;30.10;24.60;;;;;;;12.01;47.39;96941.69;5098455;28;20663;-45
2022/03/19 09:49:34;;;;;;;28.47;22.70;;;;;;;13.06;45.00;96931.75;5098232;28;20289;-72
2022/03/19 09:52:02;;;;;;;31.70;24.10;;;;;;;13.23;44.78;96925.59;5098228;28;20186;-43
2022/03/19 09:54:28;;;;;;;29.37;23.33;;;;;;;12.16;45.62;96927.78;5116022;28;20656;-69
2022/03/19 09:56:53;;;;;;;27.53;23.50;;;;;;;12.16;46.05;96927.78;5097977;28;20184;-70
2022/03/19 09:59:22;;;;;;;28.83;22.47;;;;;;;12.63;45.68;96918.84;5115113;28;20191;-70
2022/03/19 10:01:48;;;;;;;28.50;22.07;;;;;;;13.19;43.91;96914.59;5097609;28;20229;-70
2022/03/19 10:04:17;;;;;;;26.07;21.77;;;;;;;12.72;43.39;96914.59;5098309;28;20184;-70
2022/03/19 10:09:46;;;;;;;25.43;20.93;;;;;;;12.90;41.79;96912.03;5116303;28;20243;-48
2022/03/19 10:12:13;;;;;;;29.23;21.27;;;;;;;12.98;41.33;96898.00;5097762;28;20179;-63
2022/03/19 10:14:39;;;;;;;26.53;20.90;;;;;;;12.93;41.60;96905.78;5097963;28;20215;-63
2022/03/19 10:17:04;;;;;;;27.17;21.93;;;;;;;12.81;40.71;96908.81;5097623;28;20186;-63
2022/03/19 10:19:29;;;;;;;25.37;19.73;;;;;;;13.25;40.64;96906.78;5097477;28;20287;-69
2022/03/19 10:22:06;;;;;;;26.27;20.43;;;;;;;13.57;39.39;96901.47;5097898;28;20187;-65
2022/03/19 10:24:36;;;;;;;29.47;21.20;;;;;;;13.07;40.18;96895.72;5096594;28;20237;-69
2022/03/19 10:27:01;;;;;;;24.80;19.50;;;;;;;13.69;38.85;96893.69;5097651;28;20179;-53
2022/03/19 10:29:29;;;;;;;23.97;19.67;;;;;;;14.20;38.72;96883.25;5097807;28;20182;-47
2022/03/19 10:32:03;;;;;;;28.20;20.90;;;;;;;13.36;39.52;96884.91;5097458;28;20195;-45
2022/03/19 10:34:29;;;;;;;27.87;21.10;;;;;;;13.63;39.06;96873.28;5097643;28;20235;-45
2022/03/19 10:36:55;;;;;;;24.10;20.03;;;;;;;13.12;40.12;96869.88;5097478;28;20191;-46
2022/03/19 10:39:24;;;;;;;26.27;20.30;;;;;;;14.01;39.66;96880.06;5097362;28;20179;-45
2022/03/19 10:41:50;;;;;;;23.97;20.23;;;;;;;13.39;39.04;96876.69;5097328;28;20176;-47
2022/03/19 10:44:18;;;;;;;24.67;19.43;;;;;;;13.32;38.96;96852.75;5097337;28;20190;-47
2022/03/19 10:46:48;;;;;;;25.30;19.57;;;;;;;12.53;39.23;96859.25;5097341;28;20186;-45
2022/03/19 10:49:15;;;;;;;27.17;20.33;;;;;;;11.83;41.50;96858.56;5097084;28;20195;-45
2022/03/19 10:51:44;;;;;;;22.43;18.67;;;;;;;12.66;40.17;96855.84;5096955;28;20562;-45
2022/03/19 10:54:11;;;;;;;25.53;19.57;;;;;;;12.99;39.15;96854.91;5096693;28;20203;-44
2022/03/19 10:56:37;;;;;;;25.23;19.20;;;;;;;13.05;38.71;96839.69;5097122;28;20180;-44
2022/03/19 10:59:02;;;;;;;24.90;18.40;;;;;;;12.21;38.47;96830.81;5096878;28;20191;-46
2022/03/19 11:01:30;;;;;;;21.97;17.07;;;;;;;13.23;37.33;96832.31;5096835;28;20188;-44
2022/03/19 11:03:55;;;;;;;20.57;16.37;;;;;;;12.90;38.00;96840.72;5096758;28;20207;-52
2022/03/19 11:06:24;;;;;;;22.83;17.50;;;;;;;13.62;36.89;96822.28;5097438;28;20182;-44
2022/03/19 11:08:51;;;;;;;21.47;16.33;;;;;;;12.62;36.75;96822.13;5097105;28;20645;-43
2022/03/19 11:11:32;;;;;;;22.10;17.10;;;;;;;12.51;37.53;96815.78;5096607;28;20271;-44
2022/03/19 11:13:58;;;;;;;18.83;15.20;;;;;;;13.09;36.83;96815.78;5097104;28;20210;-43
2022/03/19 11:16:25;;;;;;;20.67;17.17;;;;;;;12.16;38.50;96809.22;5096581;28;20175;-44
2022/03/19 11:18:52;;;;;;;20.97;16.40;;;;;;;12.66;37.66;96805.72;5097001;28;20183;-44
2022/03/19 11:21:19;;;;;;;22.70;16.60;;;;;;;11.54;38.11;96799.22;5096315;28;20180;-45
2022/03/19 11:24:02;;;;;;;20.93;15.77;;;;;;;12.13;38.42;96797.06;5096503;28;20180;-52
2022/03/19 11:26:29;;;;;;;19.10;15.50;;;;;;;12.75;37.01;96795.22;5097038;28;20274;-51